createdAt,value
2019-02-06T00:01:45.424Z,54.90
2019-02-06T00:03:12.669Z,55.00
2019-02-06T00:04:38.161Z,55.20
2019-02-06T00:06:03.789Z,55.60
2019-02-06T00:07:29.432Z,55.80
2019-02-06T00:08:55.188Z,55.80
2019-02-06T00:10:20.633Z,56.00
2019-02-06T00:11:46.221Z,56.10
2019-02-06T00:13:11.955Z,56.20
2019-02-06T00:14:37.635Z,56.20
2019-02-06T00:16:03.351Z,56.20
2019-02-06T00:17:29.017Z,56.20
2019-02-06T00:18:54.673Z,56.00
2019-02-06T00:20:20.287Z,56.00
2019-02-06T00:21:45.978Z,55.70
2019-02-06T00:23:11.604Z,55.60
2019-02-06T00:24:37.144Z,55.50
2019-02-06T00:26:02.751Z,55.50
2019-02-06T00:27:28.736Z,55.50
2019-02-06T00:28:54.246Z,55.50
2019-02-06T00:30:21.646Z,55.60
2019-02-06T00:31:47.092Z,55.50
2019-02-06T00:33:12.918Z,55.30
2019-02-06T00:34:38.441Z,55.20
2019-02-06T00:36:04.133Z,55.00
2019-02-06T00:37:29.624Z,55.20
2019-02-06T00:38:56.658Z,55.50
2019-02-06T00:40:22.355Z,55.40
2019-02-06T00:41:47.829Z,55.60
2019-02-06T00:43:13.677Z,55.60
2019-02-06T00:44:39.663Z,55.80
2019-02-06T00:46:05.371Z,56.20
2019-02-06T00:47:30.850Z,56.30
2019-02-06T00:48:56.382Z,56.20
2019-02-06T00:50:21.857Z,55.40
2019-02-06T00:51:47.404Z,54.90
2019-02-06T00:53:12.967Z,54.20
2019-02-06T00:54:38.456Z,53.50
2019-02-06T00:56:03.980Z,53.20
2019-02-06T00:57:29.446Z,53.20
2019-02-06T00:58:55.068Z,53.20
2019-02-06T01:00:22.764Z,52.60
2019-02-06T01:01:48.469Z,52.80
2019-02-06T01:03:14.120Z,52.80
2019-02-06T01:04:39.768Z,52.90
2019-02-06T01:06:05.609Z,53.00
2019-02-06T01:07:31.210Z,52.90
2019-02-06T01:08:56.787Z,52.70
2019-02-06T01:10:22.645Z,52.90
2019-02-06T01:11:48.192Z,52.60
2019-02-06T01:13:13.773Z,52.50
2019-02-06T01:14:39.722Z,51.90
2019-02-06T01:16:05.375Z,52.00
2019-02-06T01:17:30.956Z,52.00
2019-02-06T01:18:56.481Z,52.00
2019-02-06T01:20:22.525Z,52.10
2019-02-06T01:21:47.976Z,52.00
2019-02-06T01:23:16.252Z,52.20
2019-02-06T01:24:40.814Z,52.50
2019-02-06T01:26:06.784Z,52.80
2019-02-06T01:27:32.270Z,53.20
2019-02-06T01:28:57.795Z,53.50
2019-02-06T01:30:24.911Z,53.70
2019-02-06T01:31:50.509Z,54.00
2019-02-06T01:33:15.994Z,54.30
2019-02-06T01:34:41.529Z,54.50
2019-02-06T01:36:07.246Z,54.70
2019-02-06T01:37:32.761Z,55.20
2019-02-06T01:38:58.201Z,55.50
2019-02-06T01:40:23.946Z,55.90
2019-02-06T01:41:49.601Z,56.20
2019-02-06T01:43:15.104Z,56.60
2019-02-06T01:44:40.697Z,56.90
2019-02-06T01:46:06.465Z,56.90
2019-02-06T01:47:32.029Z,57.00
2019-02-06T01:48:57.536Z,57.20
2019-02-06T01:50:23.405Z,57.30
2019-02-06T01:51:49.040Z,57.40
2019-02-06T01:53:14.500Z,57.30
2019-02-06T01:54:40.087Z,57.20
2019-02-06T01:56:06.269Z,56.80
2019-02-06T01:57:31.739Z,56.50
2019-02-06T01:58:57.294Z,55.90
2019-02-06T02:00:24.272Z,55.50
2019-02-06T02:01:50.275Z,55.30
2019-02-06T02:03:15.940Z,55.10
2019-02-06T02:04:41.578Z,55.10
2019-02-06T02:06:07.277Z,54.90
2019-02-06T02:07:32.745Z,54.60
2019-02-06T02:09:01.908Z,54.40
2019-02-06T02:10:27.598Z,54.20
2019-02-06T02:11:53.309Z,53.70
2019-02-06T02:13:18.993Z,53.90
2019-02-06T02:14:44.590Z,54.20
2019-02-06T02:16:10.292Z,54.40
2019-02-06T02:17:35.817Z,54.70
2019-02-06T02:19:01.581Z,54.90
2019-02-06T02:20:27.179Z,55.20
2019-02-06T02:21:52.741Z,55.40
2019-02-06T02:23:18.465Z,55.70
2019-02-06T02:24:44.055Z,56.00
2019-02-06T02:26:09.671Z,56.10
2019-02-06T02:27:35.205Z,56.30
2019-02-06T02:29:00.924Z,56.50
2019-02-06T02:30:34.793Z,56.70
2019-02-06T02:32:00.447Z,57.00
2019-02-06T02:33:25.882Z,57.50
2019-02-06T02:34:51.328Z,57.60
2019-02-06T02:36:16.872Z,57.90
2019-02-06T02:37:42.566Z,58.00
2019-02-06T02:39:09.214Z,58.00
2019-02-06T02:40:34.764Z,58.10
2019-02-06T02:42:00.421Z,58.10
2019-02-06T02:43:25.989Z,58.10
2019-02-06T02:44:51.520Z,57.80
2019-02-06T02:46:17.115Z,57.60
2019-02-06T02:47:42.906Z,57.50
2019-02-06T02:49:08.487Z,57.40
2019-02-06T02:50:34.009Z,57.10
2019-02-06T02:51:59.522Z,56.20
2019-02-06T02:53:25.021Z,55.40
2019-02-06T02:54:50.477Z,54.70
2019-02-06T02:56:16.177Z,54.10
2019-02-06T02:57:42.105Z,54.20
2019-02-06T02:59:07.760Z,54.30
2019-02-06T03:00:55.337Z,54.30
2019-02-06T03:02:48.535Z,53.90
2019-02-06T03:04:24.189Z,53.70
2019-02-06T03:05:49.683Z,54.00
2019-02-06T03:07:15.294Z,54.20
2019-02-06T03:08:40.886Z,54.50
2019-02-06T03:10:07.503Z,54.60
2019-02-06T03:11:33.026Z,55.00
2019-02-06T03:12:58.500Z,55.40
2019-02-06T03:14:23.967Z,56.20
2019-02-06T03:15:49.571Z,56.70
2019-02-06T03:17:15.055Z,56.90
2019-02-06T03:18:40.741Z,56.90
2019-02-06T03:20:07.722Z,57.00
2019-02-06T03:21:33.247Z,58.00
2019-02-06T03:22:58.780Z,57.50
2019-02-06T03:24:24.298Z,57.90
2019-02-06T03:25:50.074Z,58.20
2019-02-06T03:27:15.586Z,58.40
2019-02-06T03:28:41.106Z,58.50
2019-02-06T03:30:08.887Z,58.60
2019-02-06T03:31:34.651Z,58.70
2019-02-06T03:33:00.221Z,58.70
2019-02-06T03:34:25.700Z,58.70
2019-02-06T03:35:51.184Z,58.70
2019-02-06T03:37:17.063Z,58.80
2019-02-06T03:38:42.543Z,59.40
2019-02-06T03:40:08.734Z,58.50
2019-02-06T03:41:34.222Z,58.60
2019-02-06T03:42:59.712Z,58.60
2019-02-06T03:44:25.326Z,58.80
2019-02-06T03:45:50.899Z,58.90
2019-02-06T03:47:16.369Z,59.00
2019-02-06T03:48:42.050Z,58.90
2019-02-06T03:50:09.916Z,58.90
2019-02-06T03:51:35.373Z,59.00
2019-02-06T03:53:00.997Z,58.90
2019-02-06T03:54:26.696Z,58.80
2019-02-06T03:55:52.203Z,58.50
2019-02-06T03:57:17.689Z,58.00
2019-02-06T03:58:43.412Z,57.90
2019-02-06T04:00:11.886Z,57.60
2019-02-06T04:01:37.371Z,57.50
2019-02-06T04:03:02.944Z,57.30
2019-02-06T04:04:28.447Z,57.20
2019-02-06T04:05:53.900Z,57.30
2019-02-06T04:07:19.667Z,57.20
2019-02-06T04:08:45.295Z,57.00
2019-02-06T04:10:12.633Z,56.70
2019-02-06T04:11:38.234Z,56.50
2019-02-06T04:13:04.099Z,56.40
2019-02-06T04:14:29.705Z,56.30
2019-02-06T04:15:55.281Z,56.20
2019-02-06T04:17:20.942Z,56.10
2019-02-06T04:18:46.845Z,56.20
2019-02-06T04:20:12.677Z,56.40
2019-02-06T04:21:38.220Z,56.50
2019-02-06T04:23:03.853Z,56.60
2019-02-06T04:24:29.798Z,56.80
2019-02-06T04:25:55.327Z,57.00
2019-02-06T04:27:20.842Z,57.20
2019-02-06T04:28:46.311Z,57.00
2019-02-06T04:30:12.842Z,57.00
2019-02-06T04:31:38.312Z,56.70
2019-02-06T04:33:03.762Z,56.90
2019-02-06T04:34:29.262Z,56.60
2019-02-06T04:35:54.722Z,56.60
2019-02-06T04:37:20.297Z,56.40
2019-02-06T04:38:45.878Z,56.30
2019-02-06T04:40:14.617Z,56.50
2019-02-06T04:41:40.158Z,56.50
2019-02-06T04:43:05.794Z,56.50
2019-02-06T04:44:31.259Z,56.60
2019-02-06T04:45:56.829Z,56.50
2019-02-06T04:47:22.365Z,56.70
2019-02-06T04:48:47.854Z,56.80
2019-02-06T04:50:13.982Z,57.00
2019-02-06T04:51:39.460Z,57.10
2019-02-06T04:53:05.328Z,57.10
2019-02-06T04:54:30.825Z,57.20
2019-02-06T04:55:56.307Z,57.30
2019-02-06T04:57:21.871Z,57.40
2019-02-06T04:58:47.484Z,57.50
2019-02-06T05:00:21.832Z,57.60
2019-02-06T05:01:47.495Z,57.80
2019-02-06T05:03:12.972Z,58.00
2019-02-06T05:04:38.690Z,58.40
2019-02-06T05:06:04.304Z,58.50
2019-02-06T05:07:29.908Z,58.90
2019-02-06T05:08:55.353Z,59.10
2019-02-06T05:10:21.020Z,59.20
2019-02-06T05:11:46.626Z,59.20
2019-02-06T05:13:12.101Z,59.20
2019-02-06T05:14:37.573Z,59.30
2019-02-06T05:16:03.074Z,59.40
2019-02-06T05:17:28.986Z,59.80
2019-02-06T05:18:54.457Z,60.20
2019-02-06T05:20:25.561Z,60.80
2019-02-06T05:21:51.095Z,61.00
2019-02-06T05:23:16.760Z,61.30
2019-02-06T05:24:42.294Z,61.40
2019-02-06T05:26:07.815Z,61.50
2019-02-06T05:27:33.499Z,61.70
2019-02-06T05:28:59.365Z,62.00
2019-02-06T05:30:24.949Z,62.00
2019-02-06T05:31:50.495Z,61.70
2019-02-06T05:33:15.966Z,61.40
2019-02-06T05:34:41.444Z,60.90
2019-02-06T05:36:07.162Z,60.00
2019-02-06T05:37:32.624Z,59.20
2019-02-06T05:38:58.189Z,58.20
2019-02-06T05:40:23.797Z,57.40
2019-02-06T05:41:49.314Z,56.80
2019-02-06T05:43:14.807Z,56.30
2019-02-06T05:44:40.334Z,56.50
2019-02-06T05:46:05.931Z,56.10
2019-02-06T05:47:31.442Z,56.00
2019-02-06T05:48:56.949Z,55.70
2019-02-06T05:50:22.562Z,55.50
2019-02-06T05:51:48.102Z,54.90
2019-02-06T05:53:13.886Z,54.50
2019-02-06T05:54:39.444Z,53.90
2019-02-06T05:56:05.165Z,54.30
2019-02-06T05:57:30.664Z,54.20
2019-02-06T05:58:56.117Z,54.40
2019-02-06T06:00:39.717Z,54.00
2019-02-06T06:02:05.577Z,54.10
2019-02-06T06:03:31.079Z,54.10
2019-02-06T06:04:56.545Z,54.00
2019-02-06T06:06:22.158Z,53.70
2019-02-06T06:07:47.650Z,53.80
2019-02-06T06:09:13.296Z,53.40
2019-02-06T06:10:38.761Z,53.40
2019-02-06T06:12:04.282Z,53.00
2019-02-06T06:13:29.757Z,53.00
2019-02-06T06:14:55.362Z,52.70
2019-02-06T06:16:21.274Z,53.00
2019-02-06T06:17:46.989Z,53.10
2019-02-06T06:19:12.440Z,52.90
2019-02-06T06:20:38.137Z,52.60
2019-02-06T06:22:04.149Z,52.20
2019-02-06T06:23:29.674Z,52.00
2019-02-06T06:24:55.164Z,51.90
2019-02-06T06:26:20.645Z,51.70
2019-02-06T06:27:46.332Z,51.70
2019-02-06T06:29:11.848Z,52.00
2019-02-06T06:30:37.332Z,51.80
2019-02-06T06:32:02.949Z,51.60
2019-02-06T06:33:28.457Z,51.90
2019-02-06T06:34:53.953Z,52.00
2019-02-06T06:36:19.440Z,51.90
2019-02-06T06:37:57.202Z,52.00
2019-02-06T06:39:12.620Z,52.00
2019-02-06T06:40:38.101Z,51.60
2019-02-06T06:42:03.619Z,51.50
2019-02-06T06:43:29.136Z,51.60
2019-02-06T06:44:54.633Z,51.50
2019-02-06T06:46:20.438Z,51.50
2019-02-06T06:47:46.032Z,51.40
2019-02-06T06:49:11.537Z,51.50
2019-02-06T06:50:38.004Z,51.50
2019-02-06T06:52:04.159Z,51.30
2019-02-06T06:53:29.722Z,50.90
2019-02-06T06:54:55.288Z,50.70
2019-02-06T06:56:20.889Z,50.60
2019-02-06T06:57:46.876Z,50.50
2019-02-06T06:59:12.414Z,50.90
2019-02-06T07:00:37.995Z,51.00
2019-02-06T07:02:03.456Z,51.10
2019-02-06T07:03:29.038Z,51.00
2019-02-06T07:04:54.501Z,51.10
2019-02-06T07:06:20.076Z,51.40
2019-02-06T07:07:45.770Z,51.10
2019-02-06T07:09:11.405Z,50.70
2019-02-06T07:10:37.019Z,51.10
2019-02-06T07:12:02.494Z,51.20
2019-02-06T07:13:28.042Z,51.30
2019-02-06T07:14:53.503Z,51.30
2019-02-06T07:16:19.001Z,51.30
2019-02-06T07:17:44.598Z,50.90
2019-02-06T07:19:10.092Z,50.80
2019-02-06T07:20:35.648Z,50.80
2019-02-06T07:22:01.207Z,50.90
2019-02-06T07:23:26.720Z,51.00
2019-02-06T07:24:52.259Z,50.90
2019-02-06T07:26:17.784Z,50.90
2019-02-06T07:27:43.555Z,51.00
2019-02-06T07:29:09.072Z,51.00
2019-02-06T07:30:36.133Z,51.10
2019-02-06T07:32:01.628Z,51.40
2019-02-06T07:33:27.388Z,51.40
2019-02-06T07:34:52.856Z,51.40
2019-02-06T07:36:18.365Z,51.40
2019-02-06T07:37:43.917Z,51.40
2019-02-06T07:39:10.231Z,51.40
2019-02-06T07:40:35.672Z,51.60
2019-02-06T07:42:01.185Z,51.80
2019-02-06T07:43:26.692Z,52.00
2019-02-06T07:44:52.166Z,52.10
2019-02-06T07:46:17.642Z,52.10
2019-02-06T07:47:43.249Z,52.10
2019-02-06T07:49:08.924Z,52.20
2019-02-06T07:50:35.381Z,52.20
2019-02-06T07:52:00.873Z,52.40
2019-02-06T07:53:26.425Z,52.50
2019-02-06T07:54:52.061Z,52.60
2019-02-06T07:56:17.547Z,52.60
2019-02-06T07:57:43.334Z,52.60
2019-02-06T07:59:08.995Z,52.40
2019-02-06T08:00:34.589Z,52.50
2019-02-06T08:02:00.197Z,52.40
2019-02-06T08:03:26.162Z,52.10
2019-02-06T08:04:51.712Z,52.00
2019-02-06T08:06:17.261Z,52.00
2019-02-06T08:07:42.928Z,52.40
2019-02-06T08:09:10.220Z,53.30
2019-02-06T08:10:36.351Z,53.30
2019-02-06T08:12:03.120Z,53.30
2019-02-06T08:13:28.741Z,53.60
2019-02-06T08:14:54.759Z,53.60
2019-02-06T08:16:20.357Z,53.80
2019-02-06T08:17:45.934Z,53.80
2019-02-06T08:19:11.626Z,53.90
2019-02-06T08:20:37.372Z,53.90
2019-02-06T08:22:02.833Z,53.80
2019-02-06T08:23:28.480Z,53.50
2019-02-06T08:24:53.961Z,53.30
2019-02-06T08:26:19.456Z,52.80
2019-02-06T08:27:45.072Z,52.70
2019-02-06T08:29:10.658Z,52.80
2019-02-06T08:30:38.580Z,52.90
2019-02-06T08:32:04.101Z,53.20
2019-02-06T08:33:29.624Z,53.00
2019-02-06T08:34:55.055Z,53.50
2019-02-06T08:36:20.774Z,54.80
2019-02-06T08:37:46.656Z,55.20
2019-02-06T08:39:12.365Z,55.20
2019-02-06T08:40:38.245Z,56.20
2019-02-06T08:42:03.740Z,56.70
2019-02-06T08:43:29.421Z,56.40
2019-02-06T08:44:55.009Z,58.70
2019-02-06T08:46:20.753Z,60.40
2019-02-06T08:47:46.654Z,62.70
2019-02-06T08:49:12.136Z,62.50
2019-02-06T08:50:37.943Z,62.70
2019-02-06T08:52:03.502Z,62.60
2019-02-06T08:53:29.002Z,62.50
2019-02-06T08:54:54.693Z,62.30
2019-02-06T08:56:20.829Z,62.40
2019-02-06T08:57:46.531Z,62.00
2019-02-06T08:59:12.177Z,61.70
2019-02-06T09:00:39.153Z,61.90
2019-02-06T09:02:05.354Z,61.80
2019-02-06T09:03:30.836Z,61.30
2019-02-06T09:04:56.430Z,60.70
2019-02-06T09:06:21.984Z,60.20
2019-02-06T09:07:47.593Z,59.90
2019-02-06T09:09:13.426Z,60.00
2019-02-06T09:10:38.989Z,59.80
2019-02-06T09:12:04.739Z,59.20
2019-02-06T09:13:30.346Z,59.20
2019-02-06T09:14:55.917Z,59.60
2019-02-06T09:16:21.481Z,59.90
2019-02-06T09:17:47.203Z,60.10
2019-02-06T09:19:12.884Z,61.00
2019-02-06T09:20:38.441Z,60.50
2019-02-06T09:22:04.206Z,60.50
2019-02-06T09:23:29.926Z,61.10
2019-02-06T09:24:55.585Z,61.20
2019-02-06T09:26:21.040Z,61.50
2019-02-06T09:27:46.681Z,61.50
2019-02-06T09:29:12.152Z,61.80
2019-02-06T09:30:37.942Z,61.80
2019-02-06T09:32:03.700Z,61.40
2019-02-06T09:33:29.240Z,62.10
2019-02-06T09:34:54.773Z,62.70
2019-02-06T09:36:20.209Z,62.90
2019-02-06T09:37:46.070Z,63.10
2019-02-06T09:39:12.506Z,63.20
2019-02-06T09:40:37.985Z,63.50
2019-02-06T09:42:03.557Z,63.90
2019-02-06T09:43:29.061Z,64.10
2019-02-06T09:44:54.677Z,64.70
2019-02-06T09:46:20.211Z,65.00
2019-02-06T09:47:45.902Z,65.10
2019-02-06T09:49:11.383Z,65.50
2019-02-06T09:50:38.294Z,65.80
2019-02-06T09:52:03.813Z,65.80
2019-02-06T09:53:29.528Z,66.70
2019-02-06T09:54:55.101Z,66.00
2019-02-06T09:56:20.638Z,66.20
2019-02-06T09:57:46.242Z,66.30
2019-02-06T09:59:11.729Z,65.90
2019-02-06T10:00:38.611Z,66.00
2019-02-06T10:02:04.449Z,65.60
2019-02-06T10:03:30.035Z,64.20
2019-02-06T10:04:55.529Z,62.80
2019-02-06T10:06:21.109Z,63.10
2019-02-06T10:07:47.046Z,63.00
2019-02-06T10:09:22.548Z,63.40
2019-02-06T10:10:39.851Z,64.20
2019-02-06T10:12:05.398Z,65.50
2019-02-06T10:13:31.199Z,65.80
2019-02-06T10:14:56.663Z,66.40
2019-02-06T10:16:22.269Z,66.30
2019-02-06T10:17:47.988Z,66.70
2019-02-06T10:19:13.984Z,66.50
2019-02-06T10:20:48.388Z,66.40
2019-02-06T10:22:13.885Z,66.30
2019-02-06T10:23:39.502Z,67.30
2019-02-06T10:25:05.496Z,67.90
2019-02-06T10:26:31.184Z,67.60
2019-02-06T10:27:56.767Z,67.30
2019-02-06T10:29:22.294Z,66.80
2019-02-06T10:30:50.214Z,67.40
2019-02-06T10:32:15.869Z,67.40
2019-02-06T10:33:41.497Z,66.80
2019-02-06T10:35:07.831Z,66.70
2019-02-06T10:36:33.643Z,66.50
2019-02-06T10:37:59.445Z,66.50
2019-02-06T10:39:34.190Z,66.30
2019-02-06T10:40:52.093Z,65.90
2019-02-06T10:42:18.095Z,65.70
2019-02-06T10:43:43.664Z,65.90
2019-02-06T10:45:10.253Z,65.80
2019-02-06T10:46:35.997Z,65.60
2019-02-06T10:48:01.891Z,65.40
2019-02-06T10:49:27.606Z,66.00
2019-02-06T10:50:54.312Z,65.70
2019-02-06T10:52:19.793Z,65.10
2019-02-06T10:53:45.798Z,65.00
2019-02-06T10:55:11.598Z,63.60
2019-02-06T10:56:37.272Z,63.00
2019-02-06T10:58:03.175Z,62.50
2019-02-06T10:59:28.697Z,62.40
2019-02-06T11:00:56.949Z,62.20
2019-02-06T11:02:22.455Z,61.30
2019-02-06T11:03:48.210Z,60.70
2019-02-06T11:05:13.933Z,60.50
2019-02-06T11:06:39.847Z,60.50
2019-02-06T11:08:06.213Z,59.70
2019-02-06T11:09:31.681Z,59.20
2019-02-06T11:10:57.323Z,59.10
2019-02-06T11:12:24.578Z,58.70
2019-02-06T11:13:50.043Z,57.90
2019-02-06T11:15:15.956Z,57.80
2019-02-06T11:16:41.495Z,57.40
2019-02-06T11:18:07.657Z,57.30
2019-02-06T11:19:33.285Z,56.90
2019-02-06T11:20:58.883Z,55.90
2019-02-06T11:22:24.498Z,53.70
2019-02-06T11:23:50.135Z,53.80
2019-02-06T11:25:16.128Z,53.10
2019-02-06T11:26:41.720Z,51.50
2019-02-06T11:28:08.169Z,49.90
2019-02-06T11:29:33.700Z,50.80
2019-02-06T11:30:59.236Z,52.00
2019-02-06T11:32:24.698Z,54.80
2019-02-06T11:33:50.306Z,57.10
2019-02-06T11:35:16.422Z,58.80
2019-02-06T11:36:42.050Z,57.50
2019-02-06T11:38:08.324Z,57.40
2019-02-06T11:39:33.873Z,56.70
2019-02-06T11:40:59.740Z,55.70
2019-02-06T11:42:25.313Z,55.80
2019-02-06T11:43:50.931Z,56.00
2019-02-06T11:45:19.080Z,58.00
2019-02-06T11:46:44.864Z,60.80
2019-02-06T11:48:10.628Z,60.30
2019-02-06T11:49:39.159Z,58.70
2019-02-06T11:51:04.954Z,59.00
2019-02-06T11:52:30.663Z,60.60
2019-02-06T11:53:58.080Z,60.90
2019-02-06T11:55:24.389Z,61.50
2019-02-06T11:56:49.893Z,63.00
2019-02-06T11:58:15.666Z,63.30
2019-02-06T11:59:41.156Z,62.70
2019-02-06T12:01:25.799Z,60.60
2019-02-06T12:02:51.777Z,60.00
2019-02-06T12:04:17.416Z,59.10
2019-02-06T12:05:42.892Z,58.00
2019-02-06T12:07:08.589Z,58.80
2019-02-06T12:08:34.658Z,59.60
2019-02-06T12:10:09.320Z,60.30
2019-02-06T12:11:27.606Z,60.50
2019-02-06T12:12:53.291Z,61.10
2019-02-06T12:14:19.277Z,61.90
2019-02-06T12:15:45.009Z,61.20
2019-02-06T12:17:10.626Z,59.60
2019-02-06T12:18:36.333Z,58.70
2019-02-06T12:20:05.305Z,57.40
2019-02-06T12:21:30.866Z,58.70
2019-02-06T12:22:56.352Z,59.70
2019-02-06T12:24:21.944Z,60.20
2019-02-06T12:25:47.669Z,62.50
2019-02-06T12:27:13.172Z,64.00
2019-02-06T12:28:38.936Z,65.10
2019-02-06T12:30:06.084Z,66.30
2019-02-06T12:31:31.847Z,67.30
2019-02-06T12:32:57.484Z,67.40
2019-02-06T12:34:22.937Z,68.50
2019-02-06T12:35:48.463Z,69.50
2019-02-06T12:37:14.441Z,70.30
2019-02-06T12:38:40.017Z,70.50
2019-02-06T12:40:06.073Z,71.60
2019-02-06T12:41:31.603Z,71.40
2019-02-06T12:42:57.155Z,70.50
2019-02-06T12:44:22.636Z,70.30
2019-02-06T12:45:48.253Z,70.90
2019-02-06T12:47:13.793Z,72.80
2019-02-06T12:48:39.378Z,74.30
2019-02-06T12:50:05.457Z,76.90
2019-02-06T12:51:31.157Z,77.20
2019-02-06T12:52:57.533Z,78.60
2019-02-06T12:54:23.166Z,78.80
2019-02-06T12:55:48.760Z,79.50
2019-02-06T12:57:14.595Z,79.20
2019-02-06T12:58:40.216Z,79.40
2019-02-06T13:00:09.759Z,78.20
2019-02-06T13:01:35.351Z,80.00
2019-02-06T13:03:01.281Z,79.60
2019-02-06T13:04:26.737Z,79.00
2019-02-06T13:05:52.232Z,80.10
2019-02-06T13:07:17.755Z,80.50
2019-02-06T13:08:43.664Z,82.30
2019-02-06T13:10:09.632Z,81.60
2019-02-06T13:11:35.146Z,83.10
2019-02-06T13:13:00.910Z,83.50
2019-02-06T13:14:26.422Z,82.10
2019-02-06T13:15:52.024Z,83.10
2019-02-06T13:17:17.722Z,82.60
2019-02-06T13:18:43.193Z,81.40
2019-02-06T13:20:14.724Z,80.30
2019-02-06T13:21:40.220Z,79.70
2019-02-06T13:23:06.346Z,80.30
2019-02-06T13:24:31.844Z,79.80
2019-02-06T13:25:57.485Z,79.80
2019-02-06T13:27:23.158Z,80.00
2019-02-06T13:28:48.702Z,80.20
2019-02-06T13:30:29.426Z,80.70
2019-02-06T13:31:54.954Z,82.00
2019-02-06T13:33:20.539Z,81.50
2019-02-06T13:34:46.149Z,81.30
2019-02-06T13:36:12.389Z,80.70
2019-02-06T13:37:38.088Z,80.60
2019-02-06T13:39:04.375Z,81.20
2019-02-06T13:40:30.246Z,81.50
2019-02-06T13:41:55.808Z,82.40
2019-02-06T13:43:21.361Z,82.50
2019-02-06T13:44:46.813Z,81.80
2019-02-06T13:46:12.388Z,83.00
2019-02-06T13:47:38.125Z,82.10
2019-02-06T13:49:04.230Z,82.00
2019-02-06T13:50:30.699Z,82.00
2019-02-06T13:51:56.253Z,82.00
2019-02-06T13:53:21.945Z,81.90
2019-02-06T13:54:47.750Z,82.10
2019-02-06T13:56:13.273Z,81.90
2019-02-06T13:57:38.965Z,83.00
2019-02-06T13:59:07.304Z,83.60
2019-02-06T14:00:33.761Z,84.00
2019-02-06T14:01:59.398Z,83.50
2019-02-06T14:03:25.088Z,83.20
2019-02-06T14:04:50.710Z,82.90
2019-02-06T14:06:16.755Z,82.60
2019-02-06T14:07:42.423Z,81.50
2019-02-06T14:09:22.189Z,81.00
2019-02-06T14:10:39.613Z,80.00
2019-02-06T14:12:05.308Z,79.20
2019-02-06T14:13:30.937Z,78.70
2019-02-06T14:14:59.395Z,78.50
2019-02-06T14:16:27.054Z,78.10
2019-02-06T14:17:52.166Z,77.30
2019-02-06T14:19:17.695Z,78.40
2019-02-06T14:20:43.428Z,79.20
2019-02-06T14:22:12.003Z,79.90
2019-02-06T14:24:08.240Z,80.80
2019-02-06T14:26:00.127Z,81.80
2019-02-06T14:27:48.380Z,81.90
2019-02-06T14:29:31.332Z,82.40
2019-02-06T14:31:32.026Z,81.90
2019-02-06T14:33:10.861Z,81.60
2019-02-06T14:34:53.834Z,81.80
2019-02-06T14:37:03.367Z,81.00
2019-02-06T14:39:19.986Z,80.80
2019-02-06T14:41:34.519Z,81.40
2019-02-06T14:43:36.501Z,82.70
2019-02-06T14:45:52.125Z,82.10
2019-02-06T14:47:57.785Z,81.40
2019-02-06T14:49:48.149Z,79.70
2019-02-06T14:51:36.602Z,78.50
2019-02-06T14:53:43.038Z,77.60
2019-02-06T14:55:36.251Z,77.60
2019-02-06T14:57:15.184Z,77.60
2019-02-06T14:59:36.853Z,78.70
2019-02-06T15:01:36.634Z,79.10
2019-02-06T15:03:45.845Z,81.90
2019-02-06T15:05:57.883Z,81.70
2019-02-06T15:07:53.396Z,82.50
2019-02-06T15:09:54.208Z,82.90
2019-02-06T15:11:58.313Z,84.10
2019-02-06T15:14:07.521Z,84.50
2019-02-06T15:15:58.114Z,84.80
2019-02-06T15:17:45.170Z,84.40
2019-02-06T15:19:36.030Z,83.20
2019-02-06T15:21:11.405Z,83.10
2019-02-06T15:23:13.112Z,82.60
2019-02-06T15:24:55.683Z,81.80
2019-02-06T15:27:01.919Z,80.70
2019-02-06T15:28:49.822Z,80.30
2019-02-06T15:31:10.696Z,79.40
2019-02-06T15:33:47.095Z,79.90
2019-02-06T15:35:38.551Z,80.00
2019-02-06T15:37:35.310Z,79.90
2019-02-06T15:39:47.642Z,79.90
2019-02-06T15:41:33.069Z,80.60
2019-02-06T15:43:38.680Z,80.20
2019-02-06T15:45:21.794Z,80.40
2019-02-06T15:46:59.608Z,80.00
2019-02-06T15:48:45.091Z,80.00
2019-02-06T15:50:45.469Z,79.30
2019-02-06T15:52:30.882Z,79.00
2019-02-06T15:54:28.462Z,79.00
2019-02-06T15:56:52.863Z,79.30
2019-02-06T15:58:49.617Z,79.90
2019-02-06T16:00:39.338Z,79.60
2019-02-06T16:02:26.433Z,78.90
2019-02-06T16:04:59.287Z,79.10
2019-02-06T16:06:46.668Z,79.70
2019-02-06T16:08:40.578Z,80.80
2019-02-06T16:10:39.888Z,81.30
2019-02-06T16:12:27.913Z,81.60
2019-02-06T16:14:41.619Z,81.80
2019-02-06T16:16:40.802Z,81.60
2019-02-06T16:18:26.975Z,81.50
2019-02-06T16:20:23.705Z,80.70
2019-02-06T16:22:22.932Z,80.30
2019-02-06T16:24:14.477Z,80.40
2019-02-06T16:25:52.214Z,80.60
2019-02-06T16:27:44.014Z,80.90
2019-02-06T16:29:31.330Z,81.80
2019-02-06T16:31:39.393Z,82.30
2019-02-06T16:33:28.820Z,82.70
2019-02-06T16:35:27.403Z,83.20
2019-02-06T16:37:22.050Z,84.00
2019-02-06T16:38:59.362Z,84.70
2019-02-06T16:41:17.452Z,84.50
2019-02-06T16:43:20.269Z,84.50
2019-02-06T16:45:08.646Z,84.40
2019-02-06T16:46:59.424Z,84.20
2019-02-06T16:48:50.330Z,83.70
2019-02-06T16:50:52.301Z,83.80
2019-02-06T16:52:37.914Z,83.70
2019-02-06T16:55:02.121Z,84.10
2019-02-06T16:56:56.307Z,84.40
2019-02-06T16:59:02.704Z,85.50
2019-02-06T17:00:49.740Z,85.30
2019-02-06T17:02:50.497Z,85.50
2019-02-06T17:04:55.502Z,85.20
2019-02-06T17:06:48.830Z,85.00
2019-02-06T17:08:53.680Z,85.20
2019-02-06T17:10:57.951Z,85.60
2019-02-06T17:12:55.011Z,86.80
2019-02-06T17:14:53.493Z,88.10
2019-02-06T17:17:18.444Z,88.20
2019-02-06T17:19:13.915Z,87.80
2019-02-06T17:21:22.882Z,87.40
2019-02-06T17:23:20.138Z,86.20
2019-02-06T17:25:15.468Z,85.50
2019-02-06T17:27:04.983Z,85.20
2019-02-06T17:28:57.926Z,84.90
2019-02-06T17:30:52.364Z,84.80
2019-02-06T17:33:25.439Z,84.70
2019-02-06T17:35:46.632Z,84.90
2019-02-06T17:37:56.609Z,84.90
2019-02-06T17:40:02.020Z,85.50
2019-02-06T17:41:42.723Z,85.60
2019-02-06T17:43:26.707Z,85.80
2019-02-06T17:45:23.305Z,86.10
2019-02-06T17:47:10.540Z,85.40
2019-02-06T17:49:14.813Z,84.90
2019-02-06T17:51:11.889Z,84.80
2019-02-06T17:53:05.622Z,84.70
2019-02-06T17:54:54.425Z,83.50
2019-02-06T17:56:20.242Z,82.70
2019-02-06T17:57:46.319Z,82.20
2019-02-06T17:59:12.013Z,82.10
2019-02-06T18:00:47.181Z,81.50
2019-02-06T18:02:12.865Z,81.60
2019-02-06T18:03:56.565Z,81.30
2019-02-06T18:05:22.156Z,81.10
2019-02-06T18:06:47.751Z,81.50
2019-02-06T18:08:13.590Z,81.80
2019-02-06T18:09:39.492Z,81.90
2019-02-06T18:11:05.288Z,81.80
2019-02-06T18:12:30.880Z,81.70
2019-02-06T18:13:58.834Z,81.40
2019-02-06T18:15:24.538Z,81.20
2019-02-06T18:16:50.254Z,80.90
2019-02-06T18:18:15.856Z,80.80
2019-02-06T18:19:42.179Z,80.50
2019-02-06T18:21:07.817Z,80.20
2019-02-06T18:22:33.301Z,80.10
2019-02-06T18:23:58.752Z,80.00
2019-02-06T18:25:24.697Z,79.60
2019-02-06T18:26:50.442Z,79.10
2019-02-06T18:28:16.961Z,78.40
2019-02-06T18:29:42.556Z,78.90
2019-02-06T18:31:08.242Z,78.20
2019-02-06T18:32:33.942Z,77.90
2019-02-06T18:33:59.690Z,77.80
2019-02-06T18:35:25.311Z,77.90
2019-02-06T18:36:50.800Z,78.20
2019-02-06T18:38:16.697Z,78.40
2019-02-06T18:39:42.248Z,78.60
2019-02-06T18:41:07.837Z,78.80
2019-02-06T18:42:37.202Z,79.10
2019-02-06T18:44:02.173Z,79.30
2019-02-06T18:45:28.046Z,79.70
2019-02-06T18:46:55.961Z,79.80
2019-02-06T18:48:24.205Z,79.80
2019-02-06T18:49:50.421Z,79.70
2019-02-06T18:51:16.041Z,79.80
2019-02-06T18:52:41.650Z,79.90
2019-02-06T18:54:09.770Z,80.10
2019-02-06T18:55:35.544Z,80.40
2019-02-06T18:57:01.000Z,80.50
2019-02-06T18:58:27.601Z,80.60
2019-02-06T18:59:53.413Z,80.60
2019-02-06T19:01:18.978Z,80.50
2019-02-06T19:02:44.998Z,80.60
2019-02-06T19:04:14.365Z,80.70
2019-02-06T19:05:39.979Z,81.00
2019-02-06T19:07:05.660Z,81.40
2019-02-06T19:08:31.160Z,81.60
2019-02-06T19:09:56.992Z,81.90
2019-02-06T19:11:24.537Z,82.50
2019-02-06T19:12:50.809Z,82.70
2019-02-06T19:14:16.714Z,82.70
2019-02-06T19:15:42.177Z,83.00
2019-02-06T19:17:08.028Z,83.10
2019-02-06T19:18:33.556Z,83.20
2019-02-06T19:19:59.115Z,83.20
2019-02-06T19:21:24.994Z,83.10
2019-02-06T19:22:50.510Z,83.40
2019-02-06T19:24:17.759Z,83.40
2019-02-06T19:25:43.478Z,83.90
2019-02-06T19:27:09.271Z,84.30